Main page
METAR-TAF:

METAR-TAF

Airports :

Cognac – Châteaubernard Air Base

Cognac, France

latitude: 45-40N, longitude: 000-19W, elevation: 30 m

Current weather observation

The report was made 47 minutes ago, at 10:30 UTC
Wind 7 kt from the East/Northeast
Temperature 1°C
Humidity 100%
Pressure 1019 hPa
Visibility: 8000 m
Overcast at a height of 400 ft

METAR: LFBG 061030Z AUTO 06007KT 8000 OVC004 01/01 Q1019 BECMG NSC

Time: 12:17 (11:17 UTC)

Forecast

The report was made 3 hours and 17 minutes ago, at 08:00 UTC
Forecast valid from 06 at 09 UTC to 07 at 09 UTC
Wind 8 kt from the Northeast
Visibility: 3000 m
Broken clouds at a height of 300 ft
mist
Becoming
from 06 at 09 UTC to 06 at 11 UTC
Visibility 10 km or more
no clouds below 1500 m and no cumulonimbus
Temporary
from 06 at 23 UTC to 07 at 03 UTC
Broken clouds at a height of 500 ft

TAF: LFBG 060800Z 0609/0709 04008KT 3000 BR BKN003 BECMG 0609/0611 CAVOK TEMPO 0623/0703 BKN005

Weather observations and forecasts of more than 4000 airports (METAR and TAF reports).

The available stations are represented by yellow and red dots on the map.

Hover mouse over dot to see the name of the station.

Then click to see weather observations and forecasts.

To change the map : click on the green buttons with a black cross to zoom in, on the green button with a dash to zoom out, or on the green arrows for adjacent maps.


METAR-TAF: